M I D A S
Marine Information and Data Acquisition System
Tripno 684 of the Zeeleeuw from 2004-04-19 06:35:39 to 2004-04-19 14:55:05
Back to CruiseResearch ActivitiesStationsMapUnderway DataData graphs

EquipmentUnitsComment
TimeDGPSUTC
LatitudeDGPSDM.mWGS84
LongitudeDGPSDM.mWGS84
TemperatureSBE03/SBE38deg celciusITS90
ConductivitySBE21S/mITS90
SalinitySBE21 Practical Salinity Units
ChlorophylAChelsea fluorimeterg/lCalibrated in Aceton
Missing or incorrect values are displayed as -999
Sea surface data collected by the RV Zeeleeuw from 2004-04-19 06:35:39 to 2004-04-19 14:55:05
Time Latitude Longitude Temperature Conductivity Salinity ChlorophylA
2004-04-19 06:36:40 51°13.667 2°55.793 15.310906 3.985272 28.570972 -2.668976
2004-04-19 06:37:39 51°13.677 2°55.771 15.318614 3.98485 28.569048 -2.668976
2004-04-19 06:38:39 51°13.736 2°55.728 15.324806 3.984534 28.568443 -2.668976
2004-04-19 06:39:39 51°13.83 2°55.632 15.326667 3.984113 28.568916 -2.668976
2004-04-19 06:40:38 51°13.951 2°55.543 15.331256 3.983796 28.56975 -0.814958
2004-04-19 06:41:38 51°14.084 2°55.451 15.336927 3.98348 28.568666 -0.848668
2004-04-19 06:42:39 51°14.221 2°55.324 15.34342 3.983269 28.568902 -0.814958
2004-04-19 06:43:39 51°14.336 2°55.115 15.347922 3.982953 28.566379 -0.848668
2004-04-19 06:44:38 51°14.429 2°54.826 15.357227 3.982848 28.567457 -0.814958
2004-04-19 06:45:39 51°14.399 2°54.457 10.555504 3.686277 27.638228 5.320153
2004-04-19 06:46:40 51°14.295 2°54.12 10.029989 3.398199 30.235835 68.01964
2004-04-19 06:47:39 51°14.196 2°53.793 9.883983 3.498914 31.580714 68.01964
2004-04-19 06:48:39 51°14.096 2°53.454 9.830633 3.520093 31.93428 68.053349
2004-04-19 06:49:39 51°13.976 2°53.124 9.79178 3.565609 32.447988 68.01964
2004-04-19 06:50:38 51°13.88 2°52.777 9.789992 3.557391 32.370713 68.087059
2004-04-19 06:51:39 51°13.763 2°52.427 9.793568 3.577621 32.601766 68.053349
2004-04-19 06:52:39 51°13.647 2°52.079 9.778792 3.58563 32.694671 68.087059
2004-04-19 06:53:40 51°13.531 2°51.721 9.769662 3.59585 32.81012 68.053349
2004-04-19 06:54:38 51°13.417 2°51.38 9.764861 3.618821 33.051458 68.053349
2004-04-19 06:55:38 51°13.296 2°51.029 9.76472 3.635365 33.226299 68.053349
2004-04-19 06:56:40 51°13.17 2°50.667 9.760389 3.642847 33.306131 68.154477
2004-04-19 06:57:39 51°13.046 2°50.327 9.752103 3.644638 33.331119 68.120768
2004-04-19 06:58:38 51°12.923 2°49.986 9.731385 3.642847 33.333202 68.120768
2004-04-19 06:59:40 51°12.795 2°49.625 9.732515 3.646746 33.385711 68.154477
2004-04-19 07:00:39 51°12.672 2°49.282 9.731856 3.655809 33.478033 68.154477
2004-04-19 07:01:38 51°12.55 2°48.937 9.738025 3.667927 33.602304 68.221896
2004-04-19 07:02:39 51°12.424 2°48.58 9.750597 3.678571 33.698658 68.188187
2004-04-19 07:03:40 51°12.297 2°48.223 9.761942 3.681311 33.716697 68.154477
2004-04-19 07:04:40 51°12.174 2°47.872 9.769568 3.684577 33.745431 68.255606
2004-04-19 07:05:39 51°12.054 2°47.527 9.776722 3.694167 33.834047 68.221896
2004-04-19 07:06:38 51°11.939 2°47.177 9.784863 3.695748 33.846345 68.221896
2004-04-19 07:07:38 51°11.836 2°46.809 9.792345 3.698699 33.870316 68.221896
2004-04-19 07:08:38 51°11.735 2°46.439 9.797849 3.701649 33.891989 68.087059
2004-04-19 07:09:40 51°11.683 2°46.031 9.805706 3.706075 33.930224 65.120631
2004-04-19 07:10:40 51°11.626 2°45.636 9.797285 3.707867 33.95308 59.895674
2004-04-19 07:11:40 51°11.569 2°45.24 9.788063 3.705759 33.937716 56.15393
2004-04-19 07:12:38 51°11.515 2°44.858 9.778369 3.710186 33.992054 54.030238
2004-04-19 07:13:38 51°11.458 2°44.465 9.767638 3.714401 34.045816 52.277349
2004-04-19 07:14:38 51°11.4 2°44.073 9.763778 3.717458 34.087015 48.8727
2004-04-19 07:15:38 51°11.344 2°43.682 9.762931 3.719987 34.111302 46.411913
2004-04-19 07:16:38 51°11.29 2°43.292 9.768391 3.723359 34.146513 45.670306
2004-04-19 07:17:40 51°11.234 2°42.891 9.777522 3.727153 34.176775 43.917418
2004-04-19 07:18:39 51°11.183 2°42.545 9.781851 3.731158 34.211497 43.951127
2004-04-19 07:19:38 51°11.143 2°42.331 9.778651 3.733582 34.239344 43.479195
2004-04-19 07:20:39 51°11.115 2°42.177 9.773427 3.71398 34.043051 41.827435
2004-04-19 07:21:39 51°11.095 2°42.092 9.771168 3.68542 33.753263 40.95099
2004-04-19 07:22:40 51°11.094 2°42.082 9.769285 3.736217 34.272447 42.09711
2004-04-19 07:23:38 51°11.092 2°42.067 9.769709 3.736744 34.279379 49.142375
2004-04-19 07:24:39 51°11.092 2°42.045 9.771498 3.736849 34.28123 49.9514
2004-04-19 07:25:39 51°11.094 2°42.02 9.768721 3.736744 34.280927 48.400768
2004-04-19 07:26:38 51°11.097 2°41.991 9.768156 3.736638 34.281399 48.26593
2004-04-19 07:27:39 51°11.098 2°41.96 9.76825 3.736533 34.278774 46.681589
2004-04-19 07:28:39 51°11.099 2°41.927 9.766179 3.736744 34.282476 42.805007
2004-04-19 07:29:40 51°11.1 2°41.892 9.766226 3.736849 34.282779 39.400358
2004-04-19 07:30:38 51°11.1 2°41.849 9.772439 3.737271 34.286312 37.0407
2004-04-19 07:31:38 51°11.064 2°41.653 9.77531 3.737692 34.291394 34.849589
2004-04-19 07:32:40 51°10.994 2°41.298 9.766744 3.739273 34.306 36.703606
2004-04-19 07:33:39 51°10.933 2°40.931 9.754034 3.740116 34.323143 39.366648
2004-04-19 07:34:39 51°10.869 2°40.553 9.723943 3.739273 34.334689 39.096973
2004-04-19 07:35:40 51°10.804 2°40.168 9.685309 3.735269 34.32399 38.018272
2004-04-19 07:36:38 51°10.743 2°39.804 9.650567 3.734743 34.360579 38.355366
2004-04-19 07:37:40 51°10.664 2°39.422 9.643163 3.7339 34.368291 42.67017
2004-04-19 07:38:40 51°10.584 2°39.053 9.639201 3.733057 34.367438 44.524187
2004-04-19 07:39:40 51°10.504 2°38.683 9.637315 3.733057 34.366659 45.232084
2004-04-19 07:40:40 51°10.424 2°38.312 9.629485 3.732846 34.369173 44.996118
2004-04-19 07:41:38 51°10.347 2°37.952 9.612927 3.731792 34.372395 43.040973
2004-04-19 07:42:38 51°10.266 2°37.579 9.601178 3.730844 34.374363 38.591332
2004-04-19 07:43:39 51°10.185 2°37.198 9.589191 3.729579 34.373086 33.973144
2004-04-19 07:44:40 51°10.116 2°36.815 9.578193 3.728631 34.374276 31.883161
2004-04-19 07:45:39 51°10.05 2°36.444 9.563557 3.727788 34.378112 32.287674
2004-04-19 07:46:40 51°10.068 2°36.06 9.549579 3.72705 34.379908 32.051708
2004-04-19 07:47:40 51°10.233 2°35.835 9.455293 3.724838 34.394696 32.388802
2004-04-19 07:48:40 51°10.443 2°35.8 9.363759 3.717462 34.413606 31.512358
2004-04-19 07:49:40 51°10.644 2°35.892 9.342348 3.711666 34.417493 32.725896
2004-04-19 07:50:39 51°10.826 2°36.048 9.344622 3.713036 34.437943 31.815742
2004-04-19 07:51:40 51°11.017 2°36.206 9.383838 3.712509 34.425412 30.26511
2004-04-19 07:52:39 51°11.202 2°36.355 9.414417 3.715776 34.41036 32.085418
2004-04-19 07:53:39 51°11.392 2°36.505 9.397236 3.716408 34.413738 32.591059
2004-04-19 07:54:39 51°11.581 2°36.656 9.384548 3.715776 34.425297 31.074136
2004-04-19 07:55:40 51°11.76 2°36.844 9.363333 3.714511 34.420899 31.883161
2004-04-19 07:56:39 51°11.93 2°37.033 9.352581 3.713142 34.428792 31.815742
2004-04-19 07:57:40 51°12.107 2°37.227 9.373847 3.713879 34.434048 30.939298
2004-04-19 07:58:38 51°12.276 2°37.409 9.409116 3.716514 34.432909 30.737042
2004-04-19 07:59:39 51°12.451 2°37.606 9.432777 3.718305 34.423871 31.883161
2004-04-19 08:00:40 51°12.632 2°37.788 9.442333 3.719359 34.418239 32.928153
2004-04-19 08:01:38 51°12.806 2°37.956 9.448908 3.719675 34.412861 32.894443
2004-04-19 08:02:40 51°13.001 2°38.109 9.454584 3.719569 34.407067 32.725896
2004-04-19 08:03:39 51°13.19 2°38.246 9.46513 3.719358 34.395483 33.939435
2004-04-19 08:04:38 51°13.378 2°38.385 9.46896 3.719569 34.392949 34.512494
2004-04-19 08:05:40 51°13.575 2°38.534 9.464373 3.719569 34.389813 34.074272
2004-04-19 08:06:38 51°13.761 2°38.67 9.44957 3.719569 34.397654 33.400084
2004-04-19 08:07:40 51°13.98 2°38.71 9.426247 3.719569 34.4157 31.714614
2004-04-19 08:08:40 51°14.19 2°38.61 9.406324 3.707134 34.31028 30.635913
2004-04-19 08:09:39 51°14.387 2°38.45 9.387389 3.703656 34.287746 30.2314
2004-04-19 08:10:40 51°14.589 2°38.292 9.375457 3.715249 34.431661 30.26511
2004-04-19 08:11:38 51°14.78 2°38.146 9.355944 3.713879 34.428537 30.501076
2004-04-19 08:12:40 51°14.985 2°37.995 9.336805 3.713879 34.441924 28.208836
2004-04-19 08:13:38 51°15.174 2°37.844 9.322683 3.71272 34.451229 25.916597
2004-04-19 08:14:39 51°15.37 2°37.657 9.307706 3.712299 34.460282 24.63564
2004-04-19 08:15:38 51°15.565 2°37.477 9.295617 3.712615 34.477763 24.197418
2004-04-19 08:16:40 51°15.771 2°37.294 9.274468 3.711878 34.485145 25.377247
2004-04-19 08:17:38 51°15.965 2°37.125 9.256253 3.711035 34.491443 25.343537
2004-04-19 08:18:40 51°16.171 2°36.938 9.226596 3.708717 34.492758 24.736768
2004-04-19 08:19:38 51°16.37 2°36.811 9.215488 3.70682 34.493695 23.017589
2004-04-19 08:20:40 51°16.539 2°36.793 9.189089 3.705029 34.487802 21.466956
2004-04-19 08:21:39 51°16.61 2°36.761 9.188662 3.701867 34.470078 21.871469
2004-04-19 08:22:39 51°16.608 2°36.743 9.179448 3.69997 34.459122 22.37711
2004-04-19 08:23:40 51°16.601 2°36.732 9.184625 3.699127 34.452755 23.388392
2004-04-19 08:24:40 51°16.591 2°36.724 9.190182 3.699443 34.451281 25.073862
2004-04-19 08:25:40 51°16.579 2°36.714 9.187522 3.699338 34.445436 25.006443
2004-04-19 08:26:39 51°16.565 2°36.704 9.187237 3.699127 34.443251 25.882888
2004-04-19 08:27:40 51°16.55 2°36.694 9.188377 3.698917 34.441857 26.961589
2004-04-19 08:28:40 51°16.535 2°36.685 9.18662 3.6986 34.438579 28.208836
2004-04-19 08:29:38 51°16.522 2°36.674 9.184055 3.698495 34.439069 28.714477
2004-04-19 08:30:40 51°16.506 2°36.665 9.182203 3.698284 34.442427 29.590922
2004-04-19 08:31:40 51°16.498 2°36.735 9.180066 3.697968 34.438356 29.422375
2004-04-19 08:32:38 51°16.581 2°36.685 9.184388 3.697863 34.439639 29.1527
2004-04-19 08:33:38 51°16.701 2°36.487 9.188235 3.6986 34.438579 27.972871
2004-04-19 08:34:40 51°16.838 2°36.263 9.166765 3.69723 34.434665 28.411093
2004-04-19 08:35:38 51°16.984 2°36.041 9.140014 3.695123 34.433394 28.748187
2004-04-19 08:36:40 51°17.158 2°35.784 9.088047 3.694702 34.463122 27.534648
2004-04-19 08:37:40 51°17.322 2°35.53 9.088475 3.694281 34.492913 26.186272
2004-04-19 08:38:38 51°17.486 2°35.29 9.092233 3.694808 34.495209 27.534648
2004-04-19 08:39:40 51°17.672 2°35.044 9.088523 3.694386 34.497986 27.332392
2004-04-19 08:40:39 51°17.849 2°34.806 9.069828 3.694492 34.504653 26.118853
2004-04-19 08:41:38 51°18.025 2°34.567 9.04613 3.693017 34.507619 25.579503
2004-04-19 08:42:40 51°18.186 2°34.277 9.023614 3.690382 34.50729 27.264973
2004-04-19 08:43:40 51°18.327 2°33.974 9.00609 3.689223 34.508774 28.849315
2004-04-19 08:44:38 51°18.457 2°33.673 8.996851 3.687116 34.502771 29.354956
2004-04-19 08:45:39 51°18.594 2°33.36 8.992564 3.685851 34.493583 28.54593
2004-04-19 08:46:39 51°18.73 2°33.056 8.991373 3.685746 34.493282 28.309965
2004-04-19 08:47:39 51°18.859 2°32.747 9.001042 3.685324 34.48889 27.264973
2004-04-19 08:48:40 51°18.991 2°32.43 9.017853 3.686378 34.485515 29.220118
2004-04-19 08:49:40 51°19.119 2°32.12 9.020662 3.687748 34.49261 28.748187
2004-04-19 08:50:39 51°19.244 2°31.811 9.031755 3.686905 34.473472 29.624631
2004-04-19 08:51:40 51°19.373 2°31.49 9.03642 3.686694 34.465704 30.062853
2004-04-19 08:52:40 51°19.501 2°31.175 9.030565 3.688064 34.479965 29.186409
2004-04-19 08:53:39 51°19.619 2°30.857 9.015519 3.688802 34.495613 26.86046
2004-04-19 08:54:40 51°19.721 2°30.504 8.992278 3.689329 34.523437 22.882751
2004-04-19 08:55:39 51°19.797 2°30.242 8.982703 3.689329 34.534616 20.893896
2004-04-19 08:56:40 51°19.884 2°30.096 8.973746 3.689645 34.547501 19.612939
2004-04-19 08:57:40 51°19.98 2°29.976 8.967694 3.689856 34.560895 21.163571
2004-04-19 08:58:40 51°20.071 2°29.864 8.96493 3.690699 34.568088 20.65793
2004-04-19 08:59:40 51°20.061 2°29.829 8.963691 3.691121 34.578087 21.500665
2004-04-19 09:00:40 51°20.003 2°29.766 8.959783 3.69091 34.576689 22.781623
2004-04-19 09:01:40 51°20.007 2°29.775 8.958592 3.691015 34.578589 22.309691
2004-04-19 09:02:38 51°20.04 2°29.839 8.961642 3.691226 34.579987 22.174853
2004-04-19 09:03:38 51°20.042 2°29.882 8.962023 3.691542 34.579282 19.410683
2004-04-19 09:04:39 51°20.038 2°29.897 8.965407 3.691648 34.582783 17.758922
2004-04-19 09:05:38 51°20.031 2°29.906 8.969457 3.692069 34.583978 17.893759
2004-04-19 09:06:39 51°20.023 2°29.912 8.971935 3.69228 34.586177 18.97246
2004-04-19 09:07:40 51°20.014 2°29.914 8.970172 3.69228 34.583775 18.534238
2004-04-19 09:08:40 51°20.007 2°29.913 8.97589 3.692701 34.585771 18.028597
2004-04-19 09:09:40 51°20.001 2°29.909 8.971792 3.692701 34.58497 17.556665
2004-04-19 09:10:39 51°19.995 2°29.904 8.976271 3.693123 34.586965 16.612802
2004-04-19 09:11:39 51°19.989 2°29.9 8.977271 3.693228 34.585663 16.444255
2004-04-19 09:12:39 51°19.982 2°29.895 8.976461 3.693228 34.585663 16.107161
2004-04-19 09:13:40 51°19.975 2°29.889 8.979415 3.693228 34.584063 15.567811
2004-04-19 09:14:39 51°19.956 2°29.896 8.981035 3.693439 34.585461 16.241999
2004-04-19 09:15:39 51°19.943 2°30.001 8.98356 3.687537 34.521533 15.803777
2004-04-19 09:16:39 51°20.052 2°30.195 8.997184 3.688591 34.528525 15.230717
2004-04-19 09:17:40 51°20.163 2°30.492 8.991945 3.687643 34.514647 15.500392
2004-04-19 09:18:39 51°20.263 2°30.794 8.985228 3.694282 34.58785 16.039742
2004-04-19 09:19:40 51°20.362 2°31.112 8.985895 3.694493 34.590848 17.219571
2004-04-19 09:20:39 51°20.456 2°31.423 8.990706 3.69112 34.55409 16.983606
2004-04-19 09:21:40 51°20.558 2°31.736 8.987514 3.686694 34.51035 17.624084
2004-04-19 09:22:39 51°20.654 2°32.037 8.985228 3.694071 34.585652 15.770067
2004-04-19 09:23:38 51°20.744 2°32.333 8.989658 3.693228 34.579262 14.387982
2004-04-19 09:24:38 51°20.835 2°32.634 9.013377 3.691542 34.548096 14.050888
2004-04-19 09:25:40 51°20.931 2°32.944 9.048986 3.689645 34.494828 15.095879
2004-04-19 09:26:40 51°21.02 2°33.257 9.068305 3.689539 34.46905 15.770067
2004-04-19 09:27:39 51°21.111 2°33.558 9.07744 3.689328 34.454134 15.972324
2004-04-19 09:28:38 51°21.201 2°33.858 9.091091 3.688906 34.438628 17.051024
2004-04-19 09:29:40 51°21.289 2°34.183 9.11425 3.688379 34.414896 17.758922
2004-04-19 09:30:40 51°21.384 2°34.49 9.130603 3.687852 34.391983 19.309554
2004-04-19 09:31:38 51°21.474 2°34.788 9.138208 3.68743 34.37652 23.658067
2004-04-19 09:32:39 51°21.566 2°35.109 9.144624 3.686693 34.361742 26.927879
2004-04-19 09:33:40 51°21.664 2°35.419 9.157216 3.686271 34.347879 29.11899
2004-04-19 09:34:39 51°21.756 2°35.727 9.154603 3.685533 34.333114 33.939435
2004-04-19 09:35:38 51°21.846 2°36.034 9.171801 3.685112 34.324004 35.658614
2004-04-19 09:36:40 51°21.936 2°36.366 9.181063 3.684795 34.310464 37.00699
2004-04-19 09:37:39 51°22.027 2°36.675 9.185385 3.684163 34.300754 38.018272
2004-04-19 09:38:39 51°22.123 2°36.989 9.194551 3.683741 34.281407 39.366648
2004-04-19 09:39:39 51°22.216 2°37.312 9.21321 3.683741 34.27038 39.771161
2004-04-19 09:40:39 51°22.314 2°37.626 9.227972 3.683003 34.251722 39.198101
2004-04-19 09:41:39 51°22.405 2°37.945 9.242494 3.680263 34.206857 39.26552
2004-04-19 09:42:39 51°22.499 2°38.256 9.250987 3.678366 34.171542 40.108255
2004-04-19 09:43:40 51°22.589 2°38.577 9.25426 3.677418 34.158599 40.479059
2004-04-19 09:44:39 51°22.684 2°38.889 9.254403 3.675942 34.142561 42.333076
2004-04-19 09:45:40 51°22.787 2°39.21 9.254972 3.675837 34.142254 42.838717
2004-04-19 09:46:40 51°22.89 2°39.518 9.251603 3.675099 34.132278 44.085965
2004-04-19 09:47:40 51°22.991 2°39.827 9.251983 3.674045 34.122949 44.524187
2004-04-19 09:48:38 51°23.095 2°40.125 9.258008 3.672781 34.109875 45.232084
2004-04-19 09:49:40 51°23.208 2°40.445 9.248994 3.671727 34.102892 46.142238
2004-04-19 09:50:40 51°23.316 2°40.746 9.23566 3.670568 34.099513 45.569178
2004-04-19 09:51:40 51°23.424 2°41.059 9.229776 3.669409 34.093786 45.029828
2004-04-19 09:52:39 51°23.535 2°41.363 9.221802 3.668355 34.087582 44.827571
2004-04-19 09:53:39 51°23.643 2°41.68 9.205946 3.667407 34.091077 43.715161
2004-04-19 09:54:38 51°23.751 2°41.99 9.188235 3.666564 34.0988 42.029691
2004-04-19 09:55:38 51°23.854 2°42.313 9.181871 3.66551 34.09651 40.95099
2004-04-19 09:56:39 51°23.967 2°42.629 9.181491 3.664035 34.083585 41.422922
2004-04-19 09:57:39 51°24.075 2°42.938 9.188472 3.661927 34.064897 42.299366
2004-04-19 09:58:40 51°24.187 2°43.253 9.180351 3.661084 34.054602 41.861144
2004-04-19 09:59:40 51°24.296 2°43.571 9.180683 3.659925 34.044167 42.535332
2004-04-19 10:00:38 51°24.4 2°43.878 9.181918 3.659188 34.03653 41.557759
2004-04-19 10:01:40 51°24.515 2°44.194 9.176503 3.658661 34.033422 41.928563
2004-04-19 10:02:40 51°24.625 2°44.501 9.179876 3.658872 34.037169 41.355503
2004-04-19 10:03:40 51°24.737 2°44.817 9.173463 3.658134 34.027967 41.490341
2004-04-19 10:04:40 51°24.843 2°45.138 9.174603 3.657185 34.020495 41.153247
2004-04-19 10:05:40 51°24.958 2°45.455 9.173511 3.656448 34.015987 40.209383
2004-04-19 10:06:40 51°25.072 2°45.763 9.168191 3.656132 34.011149 39.83858
2004-04-19 10:07:38 51°25.178 2°46.069 9.170661 3.650441 33.956146 38.759879
2004-04-19 10:08:40 51°25.295 2°46.403 9.173653 3.65002 33.952564 37.714888
2004-04-19 10:09:40 51°25.395 2°46.73 9.163345 3.6516 33.970489 37.917144
2004-04-19 10:10:40 51°25.485 2°47.07 9.161445 3.654446 34.006987 36.703606
2004-04-19 10:11:40 51°25.578 2°47.407 9.159877 3.653287 33.997328 34.917007
2004-04-19 10:12:40 51°25.676 2°47.746 9.149138 3.646648 33.931704 36.231674
2004-04-19 10:13:40 51°25.767 2°48.087 9.145574 3.648966 33.960399 36.771024
2004-04-19 10:14:39 51°25.851 2°48.315 9.142105 3.65002 33.976004 35.658614
2004-04-19 10:15:38 51°25.932 2°48.401 9.140869 3.64591 33.936558 32.793315
2004-04-19 10:16:40 51°25.985 2°48.427 9.136877 3.64728 33.955438 32.051708
2004-04-19 10:17:40 51°25.984 2°48.441 9.136877 3.647913 33.958861 31.444939
2004-04-19 10:18:40 51°25.989 2°48.456 9.139206 3.652971 34.012833 35.287811
2004-04-19 10:19:38 51°25.994 2°48.465 9.14833 3.653919 34.019529 36.804734
2004-04-19 10:20:40 51°26 2°48.474 9.149708 3.65413 34.017798 36.43393
2004-04-19 10:21:40 51°26.005 2°48.486 9.142105 3.654235 34.021239 35.287811
2004-04-19 10:22:39 51°26.01 2°48.5 9.135736 3.654025 34.022187 34.411366
2004-04-19 10:23:40 51°26.016 2°48.516 9.134215 3.653603 34.024084 33.770888
2004-04-19 10:24:40 51°26.024 2°48.531 9.144624 3.65413 34.024845 31.916871
2004-04-19 10:25:39 51°26.029 2°48.549 9.148473 3.654762 34.025132 29.725759
2004-04-19 10:26:40 51°26.036 2°48.566 9.147665 3.655184 34.029499 28.849315
2004-04-19 10:27:40 51°26.043 2°48.583 9.154175 3.655289 34.026676 28.714477
2004-04-19 10:28:40 51°26.08 2°48.56 9.164485 3.656237 34.030237 27.736905
2004-04-19 10:29:40 51°26.192 2°48.612 9.146952 3.656553 34.031163 28.57964
2004-04-19 10:30:40 51°26.227 2°48.921 9.144196 3.657291 34.038804 29.287537
2004-04-19 10:31:40 51°26.261 2°49.291 9.145717 3.656448 34.042602 32.725896
2004-04-19 10:32:40 51°26.3 2°49.66 9.145764 3.655078 34.028407 30.096563
2004-04-19 10:33:40 51°26.342 2°50.036 9.144149 3.654762 34.026698 30.467366
2004-04-19 10:34:40 51°26.39 2°50.412 9.149613 3.652865 34.003132 30.467366
2004-04-19 10:35:39 51°26.439 2°50.787 9.158641 3.650863 33.976136 30.062853
2004-04-19 10:36:39 51°26.492 2°51.161 9.194503 3.639904 33.840862 29.354956
2004-04-19 10:37:40 51°26.541 2°51.538 9.193221 3.635161 33.775507 29.928016
2004-04-19 10:38:40 51°26.593 2°51.909 9.201483 3.635583 33.783746 30.83817
2004-04-19 10:39:40 51°26.64 2°52.282 9.242209 3.618407 33.570746 32.017999
2004-04-19 10:40:39 51°26.682 2°52.657 9.246432 3.612295 33.490772 32.995571
2004-04-19 10:41:40 51°26.734 2°53.039 9.254403 3.609977 33.465333 34.478785
2004-04-19 10:42:40 51°26.791 2°53.411 9.284142 3.606394 33.422264 35.456358
2004-04-19 10:43:38 51°26.846 2°53.775 9.331024 3.572254 33.019935 37.141828
2004-04-19 10:44:38 51°26.905 2°54.152 9.372568 3.555817 32.819556 36.164255
2004-04-19 10:45:40 51°26.972 2°54.528 9.382559 3.544648 32.67365 37.445212
2004-04-19 10:46:40 51°27.037 2°54.891 9.390371 3.541487 32.636059 39.029554
2004-04-19 10:47:40 51°27.095 2°55.259 9.386915 3.537167 32.588109 39.703742
2004-04-19 10:48:40 51°27.159 2°55.626 9.387389 3.534006 32.555012 37.883435
2004-04-19 10:49:39 51°27.223 2°55.991 9.384122 3.536113 32.580299 35.759742
2004-04-19 10:50:38 51°27.288 2°56.346 9.387531 3.541065 32.630999 34.445076
2004-04-19 10:51:40 51°27.348 2°56.722 9.391366 3.540012 32.617977 35.793452
2004-04-19 10:52:40 51°27.407 2°57.093 9.388667 3.541487 32.635314 38.051982
2004-04-19 10:53:40 51°27.467 2°57.46 9.383175 3.53959 32.613662 36.197965
2004-04-19 10:54:40 51°27.524 2°57.83 9.379198 3.538326 32.605184 38.490204
2004-04-19 10:55:40 51°27.582 2°58.199 9.364707 3.541803 32.648986 38.523913
2004-04-19 10:56:40 51°27.64 2°58.572 9.365464 3.547598 32.717318 40.243093
2004-04-19 10:57:40 51°27.698 2°58.949 9.357081 3.547387 32.715159 39.198101
2004-04-19 10:58:40 51°27.757 2°59.335 9.368637 3.546755 32.707186 40.141965
2004-04-19 10:59:40 51°27.826 2°59.708 9.372521 3.540223 32.63578 39.26552
2004-04-19 11:00:40 51°27.894 3°0.092 9.37773 3.535587 32.583833 39.366648
2004-04-19 11:01:40 51°27.96 3°0.475 9.369585 3.535587 32.580857 38.591332
2004-04-19 11:02:40 51°28.022 3°0.86 9.378203 3.53348 32.565975 38.928426
2004-04-19 11:03:40 51°28.059 3°1.251 9.377019 3.528844 32.510342 38.287947
2004-04-19 11:04:40 51°28.093 3°1.639 9.385353 3.527896 32.500636 37.512631
2004-04-19 11:05:40 51°28.13 3°2.033 9.429985 3.519783 32.399867 35.422648
2004-04-19 11:06:40 51°28.174 3°2.418 9.429654 3.507666 32.24805 32.827024
2004-04-19 11:07:40 51°28.216 3°2.812 9.429086 3.50714 32.240467 33.400084
2004-04-19 11:08:40 51°28.25 3°3.126 9.423739 3.506613 32.240967 33.265247
2004-04-19 11:09:40 51°28.311 3°3.312 9.417304 3.507245 32.253304 32.017999
2004-04-19 11:10:40 51°28.341 3°3.466 9.425159 3.508931 32.269051 30.332529
2004-04-19 11:11:40 51°28.286 3°3.546 9.417872 3.511986 32.29437 29.456084
2004-04-19 11:12:38 51°28.256 3°3.512 9.409353 3.51304 32.317656 29.624631
2004-04-19 11:13:40 51°28.262 3°3.497 9.417257 3.512302 32.313068 30.501076
2004-04-19 11:14:40 51°28.278 3°3.505 9.420049 3.512302 32.304963 31.444939
2004-04-19 11:15:40 51°28.294 3°3.52 9.419244 3.511881 32.300658 33.905725
2004-04-19 11:16:40 51°28.311 3°3.535 9.415742 3.511565 32.298165 34.411366
2004-04-19 11:17:40 51°28.33 3°3.553 9.416121 3.51167 32.303661 35.220392
2004-04-19 11:18:40 51°28.351 3°3.571 9.423314 3.511459 32.296352 34.377657
2004-04-19 11:19:40 51°28.371 3°3.583 9.423077 3.511775 32.297372 35.254101
2004-04-19 11:20:40 51°28.393 3°3.567 9.415742 3.511986 32.305417 36.46764
2004-04-19 11:21:40 51°28.363 3°3.509 9.421799 3.510933 32.296126 36.838443
2004-04-19 11:22:40 51°28.265 3°3.647 9.434574 3.509774 32.276188 36.602477
2004-04-19 11:23:40 51°28.135 3°3.948 9.435757 3.511459 32.277953 34.78217
2004-04-19 11:24:40 51°27.996 3°4.261 9.418582 3.513039 32.299977 39.434067
2004-04-19 11:25:40 51°27.853 3°4.57 9.418676 3.512934 32.312158 39.703742
2004-04-19 11:26:39 51°27.708 3°4.872 9.408643 3.512091 32.309441 40.344221
2004-04-19 11:27:40 51°27.577 3°5.215 9.404762 3.510617 32.300263 39.400358
2004-04-19 11:28:40 51°27.454 3°5.559 9.407933 3.509879 32.28978 38.894717
2004-04-19 11:29:40 51°27.333 3°5.903 9.406419 3.508404 32.276917 40.95099
2004-04-19 11:30:40 51°27.212 3°6.25 9.410063 3.506613 32.26156 42.569042
2004-04-19 11:31:40 51°27.087 3°6.593 9.377682 3.502399 32.218502 40.580187
2004-04-19 11:32:40 51°26.964 3°6.94 9.359497 3.502505 32.245326 34.78217
2004-04-19 11:33:40 51°26.841 3°7.288 9.380902 3.498185 32.208518 34.647332
2004-04-19 11:34:40 51°26.718 3°7.636 9.372094 3.493444 32.149767 38.1194
2004-04-19 11:35:40 51°26.598 3°7.972 9.377824 3.488387 32.101024 39.83858
2004-04-19 11:36:40 51°26.567 3°8.211 9.376688 3.484278 32.062704 37.950853
2004-04-19 11:37:40 51°26.526 3°8.354 9.378961 3.482698 32.03193 35.759742
2004-04-19 11:38:40 51°26.479 3°8.382 9.37844 3.48017 32.014147 34.681042
2004-04-19 11:39:40 51°26.47 3°8.377 9.381991 3.479116 32.005579 35.287811
2004-04-19 11:40:40 51°26.474 3°8.378 9.390087 3.478906 32.001966 34.512494
2004-04-19 11:41:40 51°26.479 3°8.384 9.387815 3.479748 32.003998 34.714751
2004-04-19 11:42:39 51°26.484 3°8.398 9.38559 3.480064 32.003574 34.242819
2004-04-19 11:43:40 51°26.491 3°8.415 9.382891 3.479327 32.001886 36.096836
2004-04-19 11:44:40 51°26.499 3°8.437 9.383033 3.479538 32.004769 35.490067
2004-04-19 11:45:40 51°26.495 3°8.431 9.384595 3.479432 32.004423 35.523777
2004-04-19 11:46:39 51°26.418 3°8.46 9.393117 3.479959 32.005419 35.32152
2004-04-19 11:47:40 51°26.325 3°8.736 9.398656 3.481328 32.007717 34.074272
2004-04-19 11:48:40 51°26.258 3°9.12 9.402443 3.480169 31.994428 39.467777
2004-04-19 11:49:40 51°26.169 3°9.499 9.399366 3.477746 31.971155 37.512631
2004-04-19 11:50:40 51°26.072 3°9.876 9.38933 3.474797 31.945422 36.872153
2004-04-19 11:51:40 51°25.977 3°10.254 9.384122 3.473111 31.934776 37.074409
2004-04-19 11:52:40 51°25.881 3°10.628 9.39217 3.473006 31.932971 37.242956
2004-04-19 11:53:40 51°25.73 3°10.936 9.398372 3.471425 31.905192 36.771024
2004-04-19 11:54:40 51°25.562 3°11.224 9.403011 3.468476 31.878005 35.726033
2004-04-19 11:55:40 51°25.43 3°11.561 9.400881 3.467317 31.866909 35.692324
2004-04-19 11:56:40 51°25.396 3°11.966 9.40869 3.466158 31.851452 34.411366
2004-04-19 11:57:40 51°25.447 3°12.372 9.403295 3.465104 31.841432 33.602341
2004-04-19 11:58:40 51°25.497 3°12.778 9.392502 3.467738 31.871208 33.433794
2004-04-19 11:59:40 51°25.532 3°13.19 9.385069 3.473006 31.937345 35.759742
2004-04-19 12:00:40 51°25.565 3°13.598 9.394727 3.464367 31.839721 34.849589
2004-04-19 12:01:40 51°25.591 3°14.007 9.403579 3.461101 31.801326 34.512494
2004-04-19 12:02:40 51°25.613 3°14.414 9.409495 3.458994 31.774764 34.74846
2004-04-19 12:03:40 51°25.638 3°14.825 9.425017 3.456255 31.73598 34.815879
2004-04-19 12:04:40 51°25.667 3°15.237 9.439069 3.454148 31.704389 34.343947
2004-04-19 12:05:40 51°25.7 3°15.651 9.441387 3.453726 31.689263 32.793315
2004-04-19 12:06:40 51°25.725 3°16.07 9.447063 3.45341 31.685323 34.040563
2004-04-19 12:07:40 51°25.752 3°16.488 9.453922 3.453832 31.68384 32.321383
2004-04-19 12:08:40 51°25.781 3°16.908 9.45482 3.453516 31.677736 32.860734
2004-04-19 12:09:40 51°25.803 3°17.282 9.467305 3.451725 31.654458 32.48993
2004-04-19 12:10:40 51°25.787 3°17.548 9.466454 3.45046 31.633669 29.590922
2004-04-19 12:11:40 51°25.846 3°17.718 9.488297 3.448248 31.613319 28.377383
2004-04-19 12:12:40 51°25.908 3°17.73 9.479929 3.448248 31.593901 26.86046
2004-04-19 12:13:40 51°25.926 3°17.714 9.472223 3.44572 31.578251 26.89417
2004-04-19 12:14:40 51°25.934 3°17.715 9.476667 3.44435 31.567915 25.849178
2004-04-19 12:15:40 51°25.941 3°17.724 9.478511 3.444456 31.564676 26.152563
2004-04-19 12:16:40 51°25.946 3°17.741 9.47279 3.44414 31.56218 26.186272
2004-04-19 12:17:40 51°25.95 3°17.764 9.477944 3.443507 31.557907 26.523366
2004-04-19 12:18:40 51°25.953 3°17.791 9.475012 3.44435 31.560732 26.961589
2004-04-19 12:19:40 51°25.952 3°17.817 9.477424 3.444245 31.561097 26.927879
2004-04-19 12:20:40 51°25.889 3°17.763 9.493922 3.44435 31.560014 26.624494
2004-04-19 12:21:40 51°25.743 3°17.587 9.488013 3.446141 31.568169 27.096426
2004-04-19 12:22:40 51°25.583 3°17.379 9.486879 3.451724 31.630692 30.871879
2004-04-19 12:23:40 51°25.423 3°17.177 9.480308 3.453621 31.648538 32.860734
2004-04-19 12:24:40 51°25.276 3°16.964 9.506825 3.455833 31.67032 32.860734
2004-04-19 12:25:40 51°25.129 3°16.746 9.514811 3.445719 31.547382 28.242546
2004-04-19 12:26:40 51°24.981 3°16.531 9.514291 3.435922 31.445718 25.512084
2004-04-19 12:27:40 51°24.836 3°16.311 9.504037 3.435079 31.43716 23.860324
2004-04-19 12:28:40 51°24.687 3°16.088 9.488581 3.434132 31.440395 22.444529
2004-04-19 12:29:39 51°24.539 3°15.884 9.499972 3.433078 31.433268 22.208563
2004-04-19 12:30:40 51°24.39 3°15.68 9.492835 3.430971 31.413293 24.500802
2004-04-19 12:31:40 51°24.244 3°15.468 9.495151 3.427284 31.3737 23.287264
2004-04-19 12:32:40 51°24.096 3°15.254 9.509802 3.425283 31.353373 25.916597
2004-04-19 12:33:40 51°23.949 3°15.039 9.515189 3.421912 31.304193 29.354956
2004-04-19 12:34:40 51°23.802 3°14.82 9.511834 3.418857 31.268926 28.54593
2004-04-19 12:35:40 51°23.653 3°14.606 9.4943 3.419068 31.283861 26.624494
2004-04-19 12:36:40 51°23.507 3°14.395 9.483664 3.418857 31.294529 26.32111
2004-04-19 12:37:40 51°23.361 3°14.182 9.484373 3.416118 31.266007 25.2087
2004-04-19 12:38:40 51°23.214 3°13.967 9.490424 3.412747 31.231784 26.590785
2004-04-19 12:39:40 51°23.067 3°13.756 9.497845 3.410114 31.199375 27.871742
2004-04-19 12:40:40 51°22.923 3°13.546 9.491842 3.40885 31.186546 25.343537
2004-04-19 12:41:40 51°22.812 3°13.402 9.477944 3.41064 31.211817 24.06258
2004-04-19 12:42:40 51°22.702 3°13.32 9.468629 3.41654 31.275977 21.871469
2004-04-19 12:43:40 51°22.67 3°13.276 9.461063 3.41496 31.272025 21.399537
2004-04-19 12:44:40 51°22.679 3°13.275 9.467305 3.412115 31.245978 21.028734
2004-04-19 12:45:40 51°22.695 3°13.289 9.463002 3.411694 31.237432 20.185999
2004-04-19 12:46:40 51°22.712 3°13.314 9.465414 3.411378 31.240621 20.590512
2004-04-19 12:47:40 51°22.728 3°13.348 9.483995 3.412431 31.240656 20.725349
2004-04-19 12:48:40 51°22.742 3°13.385 9.493875 3.414117 31.244976 20.927606
2004-04-19 12:49:40 51°22.757 3°13.432 9.480591 3.414327 31.25138 21.433247
2004-04-19 12:50:40 51°22.772 3°13.466 9.470615 3.413801 31.253141 21.669212
2004-04-19 12:51:40 51°22.739 3°13.316 9.479457 3.414222 31.264534 22.107435
2004-04-19 12:52:40 51°22.672 3°13.036 9.45009 3.414328 31.264181 22.006306
2004-04-19 12:53:40 51°22.65 3°12.731 9.442853 3.411589 31.255568 23.354683
2004-04-19 12:54:40 51°22.633 3°12.423 9.448908 3.410641 31.250203 22.747913
2004-04-19 12:55:40 51°22.604 3°12.12 9.458793 3.412116 31.253804 22.781623
2004-04-19 12:56:40 51°22.575 3°11.817 9.463853 3.41359 31.263095 22.444529
2004-04-19 12:57:40 51°22.543 3°11.512 9.454205 3.414117 31.265599 21.669212
2004-04-19 12:58:40 51°22.503 3°11.211 9.443043 3.41043 31.242369 23.051298
2004-04-19 12:59:40 51°22.466 3°10.912 9.446117 3.409798 31.243773 23.287264
2004-04-19 13:00:40 51°22.432 3°10.621 9.485933 3.405163 31.177494 22.95017
2004-04-19 13:01:40 51°22.401 3°10.322 9.514008 3.403372 31.128134 21.129862
2004-04-19 13:02:40 51°22.361 3°10.03 9.533993 3.402213 31.088814 19.916324
2004-04-19 13:03:40 51°22.325 3°9.731 9.524355 3.404741 31.117972 19.174717
2004-04-19 13:04:40 51°22.279 3°9.431 9.533567 3.40137 31.085922 20.388255
2004-04-19 13:05:40 51°22.23 3°9.128 9.550288 3.403055 31.089588 20.556802
2004-04-19 13:06:40 51°22.172 3°8.833 9.574935 3.404846 31.092202 21.972597
2004-04-19 13:07:40 51°22.12 3°8.534 9.602122 3.4079 31.096328 24.63564
2004-04-19 13:08:40 51°22.068 3°8.231 9.604764 3.408532 31.089333 25.444665
2004-04-19 13:09:40 51°22.015 3°7.927 9.620145 3.408111 31.080844 31.883161
2004-04-19 13:10:40 51°21.962 3°7.623 9.650897 3.41559 31.138167 33.366375
2004-04-19 13:11:40 51°21.91 3°7.323 9.670321 3.425176 31.210393 34.984426
2004-04-19 13:12:40 51°21.86 3°7.022 9.685309 3.430443 31.248798 38.15311
2004-04-19 13:13:40 51°21.811 3°6.722 9.712167 3.432971 31.254562 38.254238
2004-04-19 13:14:40 51°21.756 3°6.428 9.739155 3.427598 31.186911 36.164255
2004-04-19 13:15:40 51°21.694 3°6.141 9.756246 3.430126 31.184965 31.95058
2004-04-19 13:16:40 51°21.632 3°5.85 9.759918 3.429494 31.172962 31.276392
2004-04-19 13:17:40 51°21.569 3°5.558 9.754081 3.431284 31.191022 30.905589
2004-04-19 13:18:40 51°21.507 3°5.264 9.769285 3.43002 31.167727 29.186409
2004-04-19 13:19:40 51°21.445 3°4.967 9.754599 3.428545 31.159184 27.500939
2004-04-19 13:20:40 51°21.383 3°4.668 9.726345 3.42844 31.172185 29.220118
2004-04-19 13:21:40 51°21.322 3°4.367 9.727664 3.426228 31.166048 30.669623
2004-04-19 13:22:40 51°21.261 3°4.066 9.7043 3.422647 31.132016 27.096426
2004-04-19 13:23:40 51°21.201 3°3.763 9.671688 3.416959 31.102719 24.467093
2004-04-19 13:24:40 51°21.141 3°3.458 9.646087 3.412745 31.089695 22.849042
2004-04-19 13:25:40 51°21.08 3°3.153 9.612361 3.410007 31.088754 23.927742
2004-04-19 13:26:40 51°21.019 3°2.848 9.597544 3.407374 31.08395 22.882751
2004-04-19 13:27:40 51°20.96 3°2.541 9.599196 3.408954 31.100644 26.051435
2004-04-19 13:28:40 51°20.904 3°2.232 9.605944 3.409375 31.107023 28.040289
2004-04-19 13:29:40 51°20.848 3°1.924 9.61538 3.41243 31.12242 28.57964
2004-04-19 13:30:40 51°20.784 3°1.62 9.626561 3.414431 31.137025 28.815606
2004-04-19 13:31:40 51°20.721 3°1.315 9.658111 3.417065 31.155903 30.939298
2004-04-19 13:32:40 51°20.658 3°1.012 9.720411 3.431391 31.253433 36.366512
2004-04-19 13:33:40 51°20.597 3°0.708 9.748525 3.44656 31.358567 43.445486
2004-04-19 13:34:40 51°20.536 3°0.404 9.750503 3.453091 31.421684 46.782717
2004-04-19 13:35:40 51°20.474 3°0.1 9.66325 3.468683 31.601301 54.266204
2004-04-19 13:36:40 51°20.413 2°59.795 9.661458 3.480377 31.772707 66.233042
2004-04-19 13:37:40 51°20.351 2°59.492 9.64736 3.489648 31.863803 66.90723
2004-04-19 13:38:40 51°20.287 2°59.187 9.625617 3.514723 32.138525 68.120768
2004-04-19 13:39:40 51°20.223 2°58.879 9.610143 3.526523 32.280335 68.087059
2004-04-19 13:40:40 51°20.157 2°58.572 9.600517 3.534636 32.372383 68.120768
2004-04-19 13:41:40 51°20.09 2°58.262 9.594382 3.544751 32.481953 68.087059
2004-04-19 13:42:40 51°20.024 2°57.951 9.582488 3.554971 32.59195 68.120768
2004-04-19 13:43:40 51°19.956 2°57.637 9.571914 3.5634 32.686744 68.087059
2004-04-19 13:44:40 51°19.888 2°57.321 9.55808 3.568879 32.752272 68.087059
2004-04-19 13:45:40 51°19.82 2°57.007 9.546179 3.579311 32.869895 68.053349
2004-04-19 13:46:40 51°19.752 2°56.692 9.538197 3.584474 32.934578 68.120768
2004-04-19 13:47:40 51°19.685 2°56.378 9.52993 3.58911 32.990187 68.087059
2004-04-19 13:48:40 51°19.618 2°56.063 9.52308 3.592587 33.031731 68.087059
2004-04-19 13:49:40 51°19.548 2°55.747 9.52341 3.596275 33.067932 68.087059
2004-04-19 13:50:40 51°19.479 2°55.429 9.527048 3.598488 33.092061 68.087059
2004-04-19 13:51:40 51°19.411 2°55.11 9.536827 3.606391 33.167606 68.087059
2004-04-19 13:52:40 51°19.342 2°54.795 9.571867 3.618087 33.265328 68.120768
2004-04-19 13:53:40 51°19.272 2°54.477 9.587775 3.629572 33.36083 68.154477
2004-04-19 13:54:40 51°19.202 2°54.162 9.596883 3.641163 33.465696 66.266751
2004-04-19 13:55:39 51°19.135 2°53.85 9.599243 3.641269 33.469052 68.255606
2004-04-19 13:56:40 51°19.062 2°53.527 9.596034 3.647907 33.530861 61.277759
2004-04-19 13:57:40 51°18.991 2°53.211 9.602027 3.649277 33.543349 61.850819
2004-04-19 13:58:40 51°18.918 2°52.894 9.603726 3.652333 33.57232 58.479879
2004-04-19 13:59:40 51°18.847 2°52.573 9.595751 3.660869 33.659638 58.210204
2004-04-19 14:00:40 51°18.777 2°52.253 9.592258 3.665295 33.710281 61.176631
2004-04-19 14:01:40 51°18.705 2°51.934 9.584423 3.666665 33.731959 59.963093
2004-04-19 14:02:40 51°18.633 2°51.617 9.584754 3.666243 33.734535 62.862101
2004-04-19 14:03:40 51°18.564 2°51.306 9.575266 3.664873 33.72357 62.895811
2004-04-19 14:04:40 51°18.513 2°51.116 9.562282 3.662871 33.710722 62.154204
2004-04-19 14:05:40 51°18.494 2°51.011 9.567854 3.662661 33.711626 59.423742
2004-04-19 14:06:40 51°18.505 2°50.996 9.570261 3.664768 33.73015 59.929383
2004-04-19 14:07:40 51°18.522 2°50.995 9.568703 3.665295 33.734015 59.996802
2004-04-19 14:08:40 51°18.54 2°50.991 9.581686 3.665611 33.737253 62.289042
2004-04-19 14:09:40 51°18.552 2°50.983 9.586831 3.66677 33.737633 61.176631
2004-04-19 14:10:40 51°18.556 2°50.98 9.585131 3.665716 33.724546 61.513725
2004-04-19 14:11:40 51°18.553 2°50.984 9.577343 3.664346 33.716643 63.704836
2004-04-19 14:12:40 51°18.454 2°51.097 9.589851 3.66382 33.715076 66.772392
2004-04-19 14:13:40 51°18.276 2°51.305 9.594524 3.672777 33.785341 61.24405
2004-04-19 14:14:40 51°18.102 2°51.528 9.578476 3.696804 34.037648 49.074956
2004-04-19 14:15:40 51°17.931 2°51.756 9.564076 3.709767 34.190745 41.995982
2004-04-19 14:16:40 51°17.761 2°51.988 9.560157 3.714615 34.246727 38.321657
2004-04-19 14:17:40 51°17.59 2°52.219 9.568703 3.711874 34.216264 40.647606
2004-04-19 14:18:40 51°17.418 2°52.45 9.599479 3.708291 34.163962 41.119537
2004-04-19 14:19:40 51°17.247 2°52.68 9.628684 3.701651 34.067239 44.35564
2004-04-19 14:20:40 51°17.083 2°52.934 9.651981 3.690375 33.924788 51.906546
2004-04-19 14:21:40 51°16.93 2°53.203 9.638494 3.68226 33.835627 63.738546
2004-04-19 14:22:40 51°16.776 2°53.483 9.641418 3.690902 33.932487 50.659298
2004-04-19 14:23:40 51°16.622 2°53.759 9.662684 3.701229 34.027412 43.040973
2004-04-19 14:24:40 51°16.466 2°54.031 9.676025 3.694274 33.952382 46.917554
2004-04-19 14:25:40 51°16.367 2°54.254 9.715418 3.686475 33.846535 50.760426
2004-04-19 14:26:40 51°16.308 2°54.335 9.737978 3.685316 33.798733 49.007537
2004-04-19 14:27:40 51°16.283 2°54.344 9.747913 3.679098 33.716976 53.827982
2004-04-19 14:28:40 51°16.281 2°54.356 9.733551 3.676253 33.687955 56.625862
2004-04-19 14:29:40 51°16.28 2°54.37 9.722719 3.67678 33.700943 57.8394
2004-04-19 14:30:40 51°16.283 2°54.384 9.731667 3.674672 33.688579 58.783264
2004-04-19 14:31:40 51°16.286 2°54.399 9.737036 3.674988 33.681146 58.682136
2004-04-19 14:32:40 51°16.29 2°54.414 9.74151 3.674567 33.674563 59.659708
2004-04-19 14:33:40 51°16.271 2°54.415 9.748855 3.674356 33.664807 59.01923
2004-04-19 14:34:40 51°16.114 2°54.397 9.753892 3.675726 33.678776 59.390033
2004-04-19 14:35:40 51°15.897 2°54.405 9.726298 3.678571 33.708555 58.614717
2004-04-19 14:36:40 51°15.678 2°54.428 9.750409 3.677306 33.69718 62.828392
2004-04-19 14:37:40 51°15.457 2°54.46 9.748667 3.678044 33.701658 61.7834
2004-04-19 14:38:40 51°15.237 2°54.502 9.79465 3.690163 33.797797 59.120358
2004-04-19 14:39:40 51°15.024 2°54.587 9.810457 3.71946 34.072839 48.569315
2004-04-19 14:40:40 51°14.81 2°54.681 9.825836 3.721356 34.07605 55.513452
2004-04-19 14:41:40 51°14.606 2°54.822 9.81041 3.711028 33.966165 59.491161
2004-04-19 14:42:40 51°14.418 2°55.016 9.880694 3.696696 33.809481 68.120768
2004-04-19 14:43:40 51°14.296 2°55.208 9.875337 3.592899 32.706486 68.01964
2004-04-19 14:44:40 51°14.223 2°55.336 9.910007 3.446453 31.227843 67.952221
2004-04-19 14:45:40 51°14.147 2°55.436 9.913811 3.408108 30.823266 67.98593
2004-04-19 14:46:40 51°14.053 2°55.5 9.96714 3.357336 30.305735 67.98593
2004-04-19 14:47:40 51°13.954 2°55.561 9.978448 3.288137 29.562112 67.98593
2004-04-19 14:48:40 51°13.85 2°55.627 9.999651 3.303619 29.73228 67.952221
2004-04-19 14:49:40 51°13.752 2°55.711 9.992428 3.269601 29.369758 68.01964
2004-04-19 14:50:40 51°13.678 2°55.844 10.116004 3.209152 28.728936 67.98593
2004-04-19 14:51:40 51°13.636 2°55.957 10.164911 3.184195 28.430486 68.01964
2004-04-19 14:52:40 51°13.609 2°56.053 10.237852 3.153552 28.053117 68.087059
2004-04-19 14:53:40 51°13.598 2°56.09 10.204618 3.201463 28.528601 68.120768
2004-04-19 14:54:40 51°13.596 2°56.095 10.12958 3.240954 28.949091 68.087059